Time;durP1;ratioP1;P1;durP2;ratioP2;P2;SDS_P1;SDS_P2;PMS_P1;PMS_P2;Temp;Humidity;BMP_temperature;BMP_pressure;BME280_temperature;BME280_humidity;BME280_pressure;Samples;Min_cycle;Max_cycle;Signal;HPM_P1;HPM_P2
2023/03/20 03:01:03;;;;;;;6.93;6.50;;;9.00;99.90;;;;;;5802490;23;20717;-76
2023/03/20 03:03:37;;;;;;;6.50;6.10;;;8.90;99.90;;;;;;4952252;28;20234;-77
2023/03/20 03:06:09;;;;;;;6.90;6.50;;;9.00;99.90;;;;;;4967032;28;20206;-77
2023/03/20 03:08:41;;;;;;;6.93;6.53;;;8.90;99.90;;;;;;4971220;28;20202;-76
2023/03/20 03:11:09;;;;;;;6.63;6.23;;;9.00;99.90;;;;;;4967443;28;20219;-77
2023/03/20 03:13:41;;;;;;;6.43;6.03;;;8.90;99.90;;;;;;4972477;28;20735;-76
2023/03/20 03:16:15;;;;;;;6.17;5.87;;;8.90;99.90;;;;;;4969132;28;20205;-76
2023/03/20 03:18:43;;;;;;;6.50;6.10;;;8.90;99.90;;;;;;4963473;28;20202;-76
2023/03/20 03:21:13;;;;;;;6.87;6.47;;;9.00;99.90;;;;;;4961250;28;20321;-77
2023/03/20 03:23:43;;;;;;;6.50;6.10;;;9.00;99.90;;;;;;4959944;28;20587;-77
2023/03/20 03:26:17;;;;;;;7.00;6.60;;;9.00;99.90;;;;;;4956902;28;20202;-76
2023/03/20 03:28:48;;;;;;;6.50;6.20;;;9.00;99.90;;;;;;4962544;28;20762;-76
2023/03/20 03:31:18;;;;;;;6.23;5.90;;;9.00;99.90;;;;;;4962883;28;20598;-77
2023/03/20 03:33:48;;;;;;;6.20;5.90;;;9.00;99.90;;;;;;4965688;28;20192;-77
2023/03/20 03:36:27;;;;;;;6.40;6.00;;;9.00;99.90;;;;;;4963589;28;20222;-77
2023/03/20 03:38:58;;;;;;;6.40;6.10;;;9.00;99.90;;;;;;4970478;28;20209;-77
2023/03/20 03:41:31;;;;;;;6.40;6.00;;;9.10;99.90;;;;;;4972635;28;20347;-78
2023/03/20 03:44:11;;;;;;;6.70;6.33;;;9.10;99.90;;;;;;4957440;28;20248;-77
2023/03/20 03:46:45;;;;;;;6.90;6.50;;;9.10;99.90;;;;;;4946144;28;20257;-76
2023/03/20 03:49:17;;;;;;;6.50;6.20;;;9.10;99.90;;;;;;4950468;28;20626;-77
2023/03/20 03:51:48;;;;;;;6.30;6.00;;;9.10;99.90;;;;;;4948251;28;20215;-78
2023/03/20 03:54:19;;;;;;;6.40;6.00;;;9.10;99.90;;;;;;4951422;28;20643;-78
2023/03/20 03:56:59;;;;;;;6.77;6.37;;;9.10;99.90;;;;;;4972857;28;20229;-78
2023/03/20 03:59:33;;;;;;;6.40;6.10;;;9.10;99.90;;;;;;4960041;28;20282;-79
2023/03/20 04:02:04;;;;;;;7.20;6.80;;;9.10;99.90;;;;;;4961935;28;20234;-79
2023/03/20 04:04:33;;;;;;;7.20;6.80;;;9.10;99.90;;;;;;4967710;28;20301;-79
2023/03/20 04:07:00;;;;;;;7.20;6.80;;;9.10;99.90;;;;;;4962576;28;20198;-79
2023/03/20 04:09:28;;;;;;;7.40;7.00;;;9.10;99.90;;;;;;4956552;28;20211;-79
2023/03/20 04:11:55;;;;;;;7.03;6.63;;;9.10;99.90;;;;;;4960495;28;20242;-79
2023/03/20 04:14:22;;;;;;;7.53;7.10;;;9.10;99.90;;;;;;4966732;28;20211;-79
2023/03/20 04:16:48;;;;;;;7.10;6.70;;;9.10;99.90;;;;;;4953502;28;20670;-78
2023/03/20 04:19:17;;;;;;;7.00;6.60;;;9.10;99.90;;;;;;4968632;28;20677;-80
2023/03/20 04:21:45;;;;;;;7.00;6.60;;;9.10;99.90;;;;;;4961045;28;20225;-77
2023/03/20 04:24:14;;;;;;;7.03;6.63;;;9.10;99.90;;;;;;4959779;28;20210;-78
2023/03/20 04:26:41;;;;;;;7.10;6.70;;;9.10;99.90;;;;;;4963223;28;20222;-78
2023/03/20 04:29:08;;;;;;;7.30;6.90;;;9.10;99.90;;;;;;4964884;28;20254;-79
2023/03/20 04:31:48;;;;;;;7.40;7.00;;;9.10;99.90;;;;;;4961390;28;20206;-77
2023/03/20 04:34:49;;;;;;;7.00;6.60;;;9.10;99.90;;;;;;4944008;28;20218;-78
2023/03/20 04:37:34;;;;;;;7.10;6.70;;;9.10;99.90;;;;;;4947618;28;20194;-77
2023/03/20 04:40:08;;;;;;;6.90;6.50;;;9.10;99.90;;;;;;4957457;28;20202;-77
2023/03/20 04:42:36;;;;;;;7.80;7.30;;;9.10;99.90;;;;;;4962900;28;20872;-78
2023/03/20 04:45:07;;;;;;;7.30;6.73;;;9.10;99.90;;;;;;4965079;28;20198;-78
2023/03/20 04:47:37;;;;;;;7.20;6.70;;;9.10;99.90;;;;;;4951466;28;20194;-77
2023/03/20 04:50:07;;;;;;;7.23;6.80;;;9.10;99.90;;;;;;4951349;28;20274;-78
2023/03/20 04:52:34;;;;;;;7.37;6.90;;;9.10;99.90;;;;;;4972113;28;20609;-76
2023/03/20 04:55:02;;;;;;;7.27;6.87;;;9.10;99.90;;;;;;4965104;28;20201;-77
2023/03/20 04:57:30;;;;;;;7.10;6.70;;;9.00;99.90;;;;;;4959826;28;20253;-76
2023/03/20 04:59:58;;;;;;;7.30;6.90;;;9.00;99.90;;;;;;4959333;28;20198;-77
2023/03/20 05:02:25;;;;;;;7.90;7.40;;;9.10;99.90;;;;;;4969672;28;20225;-77
2023/03/20 05:04:53;;;;;;;7.90;7.40;;;9.10;99.90;;;;;;4958921;28;20676;-76
2023/03/20 05:07:22;;;;;;;8.20;7.80;;;9.10;99.90;;;;;;4965466;28;20238;-76
2023/03/20 05:09:54;;;;;;;8.00;7.50;;;9.10;99.90;;;;;;4966188;28;20298;-77
2023/03/20 05:12:21;;;;;;;7.57;7.17;;;9.10;99.90;;;;;;4970260;28;20222;-77
2023/03/20 05:15:08;;;;;;;7.30;6.90;;;9.10;99.90;;;;;;4967913;28;20208;-77
2023/03/20 05:17:41;;;;;;;8.00;7.50;;;9.10;99.90;;;;;;4960916;28;20210;-76
2023/03/20 05:20:46;;;;;;;7.60;7.00;;;9.10;99.90;;;;;;4963766;28;20298;-76
2023/03/20 05:23:40;;;;;;;7.70;7.20;;;9.10;99.90;;;;;;4956522;28;20747;-76
2023/03/20 05:26:25;;;;;;;7.73;7.23;;;9.10;99.90;;;;;;4963452;28;20287;-76
2023/03/20 05:29:19;;;;;;;7.73;7.30;;;9.10;99.90;;;;;;4967302;28;20229;-76
2023/03/20 05:32:06;;;;;;;8.20;7.70;;;9.10;99.90;;;;;;4970899;28;20228;-76
2023/03/20 05:34:53;;;;;;;8.00;7.50;;;9.10;99.90;;;;;;4968793;28;20590;-78
2023/03/20 05:37:25;;;;;;;7.67;7.27;;;9.10;99.90;;;;;;4958023;28;20639;-76
2023/03/20 05:40:05;;;;;;;7.93;7.43;;;9.10;99.90;;;;;;4965925;28;20206;-76
2023/03/20 05:42:41;;;;;;;7.70;7.30;;;9.10;99.90;;;;;;4968633;28;20224;-76
2023/03/20 05:45:18;;;;;;;8.20;7.70;;;9.10;99.90;;;;;;4963393;28;20208;-76
2023/03/20 05:48:11;;;;;;;7.93;7.50;;;9.10;99.90;;;;;;4961060;28;20314;-76
2023/03/20 05:50:41;;;;;;;8.23;7.67;;;9.10;99.90;;;;;;4959062;28;20232;-76
2023/03/20 05:53:35;;;;;;;9.30;8.70;;;9.10;99.90;;;;;;4963468;28;20227;-76
2023/03/20 05:56:07;;;;;;;8.80;8.20;;;9.10;99.90;;;;;;4960838;28;20586;-76
2023/03/20 05:58:49;;;;;;;8.60;8.10;;;9.10;99.90;;;;;;4968448;28;20207;-76
2023/03/20 06:01:32;;;;;;;8.53;7.93;;;9.10;99.90;;;;;;4965409;28;20297;-76
2023/03/20 06:04:25;;;;;;;8.30;7.80;;;9.10;99.90;;;;;;4957825;28;20235;-77
2023/03/20 06:07:12;;;;;;;8.70;8.00;;;9.20;99.90;;;;;;4956015;28;20219;-77
2023/03/20 06:09:42;;;;;;;8.40;7.90;;;9.20;99.90;;;;;;4953982;28;20199;-77
2023/03/20 06:12:15;;;;;;;8.03;7.60;;;9.20;99.90;;;;;;4964605;28;20246;-76
2023/03/20 06:14:42;;;;;;;7.70;7.30;;;9.30;99.90;;;;;;4957442;28;20198;-77
2023/03/20 06:17:09;;;;;;;7.80;7.40;;;9.40;99.90;;;;;;4965580;28;20677;-76
2023/03/20 06:19:37;;;;;;;8.10;7.60;;;9.40;99.90;;;;;;4960866;28;20198;-76
2023/03/20 06:22:04;;;;;;;8.20;7.70;;;9.40;99.90;;;;;;4959632;28;20228;-77
2023/03/20 06:24:33;;;;;;;8.10;7.60;;;9.40;99.90;;;;;;4958767;28;20195;-77
2023/03/20 06:27:00;;;;;;;8.23;7.67;;;9.50;99.90;;;;;;4960307;28;20239;-76
2023/03/20 06:29:29;;;;;;;8.60;8.10;;;9.50;99.90;;;;;;4963416;28;20686;-77
2023/03/20 06:32:07;;;;;;;8.50;8.00;;;9.60;99.90;;;;;;4959740;28;20290;-77
2023/03/20 06:34:34;;;;;;;8.97;8.10;;;9.60;99.90;;;;;;4971328;28;20202;-77
2023/03/20 06:37:02;;;;;;;8.50;8.00;;;9.70;99.90;;;;;;4965491;28;20229;-77
2023/03/20 06:39:29;;;;;;;8.70;7.93;;;9.70;99.90;;;;;;4960433;28;20202;-77
2023/03/20 06:41:56;;;;;;;8.60;8.00;;;9.80;99.90;;;;;;4962467;28;20227;-77
2023/03/20 06:44:25;;;;;;;8.53;7.90;;;9.80;99.90;;;;;;4963776;28;20230;-77
2023/03/20 06:47:16;;;;;;;8.40;7.90;;;9.90;99.90;;;;;;4967390;28;20214;-77
2023/03/20 06:49:43;;;;;;;8.50;8.00;;;9.90;99.90;;;;;;4962497;28;20282;-78
2023/03/20 06:52:16;;;;;;;8.23;7.67;;;10.00;99.90;;;;;;4962849;28;20224;-77
2023/03/20 06:54:45;;;;;;;8.27;7.77;;;10.10;99.90;;;;;;4953853;28;20208;-77
2023/03/20 06:57:13;;;;;;;8.10;7.60;;;10.10;99.90;;;;;;4960501;28;20201;-77
2023/03/20 06:59:43;;;;;;;6.83;6.43;;;10.20;99.90;;;;;;4959725;28;20223;-77
2023/03/20 07:02:10;;;;;;;5.87;5.47;;;10.30;99.90;;;;;;4959395;28;20232;-77
2023/03/20 07:04:39;;;;;;;5.83;5.33;;;10.30;99.90;;;;;;4963406;28;20206;-77
2023/03/20 07:07:07;;;;;;;6.20;5.80;;;10.40;99.90;;;;;;4962807;28;20270;-77
2023/03/20 07:09:35;;;;;;;5.87;5.47;;;10.50;99.90;;;;;;4953141;28;20259;-78
2023/03/20 07:12:03;;;;;;;2.50;2.40;;;10.60;99.90;;;;;;4970590;28;20217;-78
2023/03/20 07:14:32;;;;;;;7.40;7.00;;;10.70;99.90;;;;;;4964810;28;20209;-77
2023/03/20 07:17:06;;;;;;;6.63;6.23;;;10.80;99.90;;;;;;4968115;28;20201;-77
2023/03/20 07:19:33;;;;;;;7.07;6.67;;;10.90;99.90;;;;;;4971663;28;20710;-76
2023/03/20 07:22:04;;;;;;;7.40;7.00;;;10.90;99.90;;;;;;4963490;28;20222;-77
2023/03/20 07:24:38;;;;;;;4.53;4.33;;;11.00;99.90;;;;;;4960016;28;20231;-78
2023/03/20 07:27:05;;;;;;;5.07;4.77;;;11.30;99.90;;;;;;4968330;28;20731;-78
2023/03/20 07:29:35;;;;;;;5.50;5.20;;;11.40;99.90;;;;;;4966487;28;20250;-77
2023/03/20 07:32:05;;;;;;;6.20;5.90;;;11.50;99.90;;;;;;4964686;28;20722;-78
2023/03/20 07:34:39;;;;;;;5.20;4.80;;;11.70;99.90;;;;;;4962811;28;20271;-77
2023/03/20 07:37:07;;;;;;;4.60;4.30;;;11.70;99.90;;;;;;4966688;28;20579;-76
2023/03/20 07:39:35;;;;;;;3.80;3.60;;;11.80;99.90;;;;;;4960470;28;20202;-78
2023/03/20 07:42:27;;;;;;;2.03;1.83;;;11.90;99.90;;;;;;4951305;28;20288;-77
2023/03/20 07:44:59;;;;;;;2.10;1.90;;;11.90;99.90;;;;;;4947386;28;20210;-77
2023/03/20 07:47:26;;;;;;;2.00;1.83;;;11.80;99.90;;;;;;4951579;28;20206;-76
2023/03/20 07:49:53;;;;;;;2.33;2.20;;;11.60;99.90;;;;;;4952691;28;20195;-77
2023/03/20 07:52:21;;;;;;;2.73;2.53;;;11.50;99.90;;;;;;4964419;28;20222;-77
2023/03/20 07:54:48;;;;;;;4.77;4.40;;;11.50;99.90;;;;;;4966515;28;20202;-77
2023/03/20 07:57:15;;;;;;;4.53;4.33;;;11.60;99.90;;;;;;4963388;28;20206;-77
2023/03/20 07:59:42;;;;;;;5.00;4.60;;;11.70;99.90;;;;;;4962756;28;20210;-76
2023/03/20 08:02:13;;;;;;;4.93;4.53;;;11.80;99.90;;;;;;4962421;28;20631;-77
2023/03/20 08:04:40;;;;;;;4.30;4.00;;;11.90;99.90;;;;;;4963234;28;20272;-76
2023/03/20 08:07:07;;;;;;;3.00;2.80;;;12.00;99.90;;;;;;4966862;28;20236;-77
2023/03/20 08:09:35;;;;;;;3.00;2.80;;;12.10;99.90;;;;;;4958629;28;20214;-77
2023/03/20 08:12:02;;;;;;;2.50;2.40;;;12.10;99.90;;;;;;4964806;28;20281;-77
2023/03/20 08:14:29;;;;;;;2.10;2.00;;;12.00;99.90;;;;;;4966618;28;20211;-77
2023/03/20 08:16:56;;;;;;;2.80;2.60;;;12.00;99.90;;;;;;4958066;28;20210;-77
2023/03/20 08:19:23;;;;;;;2.40;2.20;;;12.10;99.90;;;;;;4960763;28;20274;-77
2023/03/20 08:21:50;;;;;;;2.53;2.10;;;12.20;99.90;;;;;;4965711;28;20644;-77
2023/03/20 08:24:17;;;;;;;2.10;2.00;;;12.20;99.90;;;;;;4968120;28;20217;-78
2023/03/20 08:26:46;;;;;;;2.10;2.00;;;12.30;99.90;;;;;;4965911;28;20194;-77
2023/03/20 08:29:16;;;;;;;2.20;2.10;;;12.30;99.90;;;;;;4964748;28;20285;-77
2023/03/20 08:31:43;;;;;;;4.17;3.87;;;12.40;99.90;;;;;;4957576;28;20637;-77
2023/03/20 08:34:09;;;;;;;4.70;4.40;;;12.50;99.90;;;;;;4958587;28;20209;-76
2023/03/20 08:36:38;;;;;;;3.97;3.50;;;12.60;99.90;;;;;;4967655;28;20198;-77
2023/03/20 08:39:05;;;;;;;3.10;2.90;;;12.70;99.90;;;;;;4960916;28;20201;-76
2023/03/20 08:41:32;;;;;;;3.80;3.50;;;12.60;99.90;;;;;;4968902;28;20313;-77
2023/03/20 08:44:01;;;;;;;4.17;3.87;;;12.50;99.90;;;;;;4965056;28;20206;-76
2023/03/20 08:46:28;;;;;;;3.80;3.50;;;12.30;99.90;;;;;;4955233;28;20192;-81
2023/03/20 08:48:55;;;;;;;4.10;3.90;;;12.10;99.90;;;;;;4960473;28;20198;-78
2023/03/20 08:51:22;;;;;;;4.17;3.87;;;12.10;99.90;;;;;;4959484;28;20313;-78
2023/03/20 08:53:49;;;;;;;3.90;3.60;;;12.20;99.90;;;;;;4965458;28;20735;-78
2023/03/20 08:56:16;;;;;;;3.65;3.22;;;12.20;99.90;;;;;;4967043;28;20411;-78
2023/03/20 08:58:42;;;;;;;4.00;3.70;;;12.40;99.90;;;;;;4969335;28;20501;-78
2023/03/20 09:01:11;;;;;;;2.10;2.00;;;12.50;99.90;;;;;;4962470;28;20242;-78
2023/03/20 09:03:38;;;;;;;2.42;2.22;;;12.70;99.90;;;;;;4958574;28;20536;-78
2023/03/20 09:06:06;;;;;;;2.25;2.15;;;12.80;99.90;;;;;;4951108;28;20448;-79
2023/03/20 09:08:33;;;;;;;2.30;2.10;;;12.90;99.90;;;;;;4963373;28;20203;-78
2023/03/20 09:11:00;;;;;;;1.90;1.80;;;13.00;99.90;;;;;;4962813;28;20260;-79
2023/03/20 09:13:27;;;;;;;2.00;1.90;;;13.20;99.90;;;;;;4963694;28;20250;-78
2023/03/20 09:15:55;;;;;;;2.37;2.00;;;13.30;99.90;;;;;;4967529;28;20217;-78
2023/03/20 09:18:24;;;;;;;3.10;2.10;;;13.50;99.90;;;;;;4965451;28;20676;-78
2023/03/20 09:20:51;;;;;;;1.87;1.77;;;13.60;99.90;;;;;;4959611;28;20211;-78
2023/03/20 09:23:18;;;;;;;2.30;2.10;;;13.70;99.90;;;;;;4966771;28;20270;-78
2023/03/20 09:25:45;;;;;;;2.10;2.00;;;14.00;99.90;;;;;;4965711;28;20232;-76
2023/03/20 09:28:11;;;;;;;2.07;1.97;;;14.20;99.90;;;;;;4958659;28;20264;-77
2023/03/20 09:30:39;;;;;;;2.40;2.20;;;14.50;99.90;;;;;;4957125;28;20254;-78
2023/03/20 09:33:06;;;;;;;2.13;1.90;;;14.70;99.90;;;;;;4959418;28;20218;-76
2023/03/20 09:35:34;;;;;;;2.30;2.10;;;14.90;99.90;;;;;;4957223;28;20282;-78
2023/03/20 09:38:01;;;;;;;2.37;2.10;;;15.00;99.90;;;;;;4972005;28;20198;-76
2023/03/20 09:40:33;;;;;;;3.40;2.30;;;15.10;99.90;;;;;;4961636;28;20202;-78
2023/03/20 09:43:13;;;;;;;2.00;1.90;;;15.20;99.90;;;;;;4962097;28;20260;-78
2023/03/20 09:45:49;;;;;;;1.90;1.80;;;15.30;99.90;;;;;;4958091;28;20665;-77
2023/03/20 09:48:23;;;;;;;3.50;2.13;;;15.30;99.90;;;;;;4959333;28;20263;-76
2023/03/20 09:50:58;;;;;;;2.10;1.90;;;15.30;99.90;;;;;;4964785;28;20222;-75
2023/03/20 09:53:29;;;;;;;1.70;1.60;;;15.20;99.90;;;;;;4964473;28;20263;-76
2023/03/20 09:55:57;;;;;;;1.90;1.80;;;15.30;99.90;;;;;;4953221;28;20205;-76
2023/03/20 09:58:26;;;;;;;2.03;1.70;;;15.10;99.90;;;;;;4957833;28;20226;-76
2023/03/20 10:00:58;;;;;;;1.93;1.83;;;15.10;99.90;;;;;;4954144;28;20234;-76
2023/03/20 10:03:28;;;;;;;1.90;1.80;;;15.10;99.90;;;;;;4955478;28;20672;-76
2023/03/20 10:06:00;;;;;;;1.70;1.60;;;14.90;99.90;;;;;;4956487;28;20257;-80
2023/03/20 10:08:32;;;;;;;1.60;1.50;;;14.90;99.90;;;;;;4964441;28;20229;-78
2023/03/20 10:11:14;;;;;;;1.80;1.70;;;14.90;99.90;;;;;;4951176;28;20219;-78
2023/03/20 10:13:56;;;;;;;1.90;1.80;;;14.80;99.90;;;;;;4963646;28;20203;-79
2023/03/20 10:16:35;;;;;;;2.60;1.90;;;14.80;99.90;;;;;;4969363;28;20200;-80
2023/03/20 10:19:12;;;;;;;2.03;1.90;;;14.60;99.90;;;;;;4957012;28;20194;-78
2023/03/20 10:21:44;;;;;;;1.80;1.70;;;14.50;99.90;;;;;;4967728;28;20727;-78
2023/03/20 10:24:19;;;;;;;1.80;1.70;;;14.50;99.90;;;;;;4966697;28;20209;-79
2023/03/20 10:26:49;;;;;;;2.20;2.10;;;14.30;99.90;;;;;;4974064;28;20228;-77
2023/03/20 10:29:25;;;;;;;2.13;2.03;;;14.20;99.90;;;;;;4972078;28;20207;-77
2023/03/20 10:32:00;;;;;;;2.00;1.90;;;14.00;99.90;;;;;;4962587;28;20282;-79
2023/03/20 10:34:40;;;;;;;1.97;1.87;;;13.90;99.90;;;;;;4961547;28;20212;-78
2023/03/20 10:37:29;;;;;;;2.10;2.00;;;13.70;99.90;;;;;;4960684;28;20207;-78
2023/03/20 10:40:16;;;;;;;2.20;2.10;;;13.60;99.90;;;;;;4965609;28;20200;-78
2023/03/20 10:42:47;;;;;;;2.33;1.90;;;13.50;99.90;;;;;;4949316;28;20229;-78
2023/03/20 10:45:26;;;;;;;1.90;1.80;;;13.40;99.90;;;;;;4962362;28;20226;-79
2023/03/20 10:47:55;;;;;;;2.37;2.20;;;13.30;99.90;;;;;;4960154;28;20219;-78
2023/03/20 10:50:24;;;;;;;3.23;3.03;;;13.10;99.90;;;;;;4967747;28;20224;-78
2023/03/20 10:52:55;;;;;;;3.40;3.20;;;13.00;99.90;;;;;;4973896;28;20197;-77
2023/03/20 10:55:27;;;;;;;2.03;1.93;;;13.00;99.90;;;;;;4967107;28;20198;-77
2023/03/20 10:57:58;;;;;;;2.20;2.00;;;13.00;99.90;;;;;;4962307;28;20234;-78
2023/03/20 11:00:27;;;;;;;1.93;1.77;;;12.90;99.90;;;;;;4960824;28;20200;-77
2023/03/20 11:02:54;;;;;;;2.50;2.40;;;13.00;99.90;;;;;;4962183;28;20207;-79
2023/03/20 11:05:25;;;;;;;2.77;2.20;;;13.10;99.90;;;;;;4963323;28;20262;-82
2023/03/20 11:08:02;;;;;;;2.10;1.90;;;13.10;99.90;;;;;;4966030;28;20214;-81
2023/03/20 11:10:32;;;;;;;1.80;1.70;;;13.20;99.90;;;;;;4966697;28;20310;-81
2023/03/20 11:13:13;;;;;;;3.00;1.70;;;13.20;99.90;;;;;;4958356;28;20204;-80
2023/03/20 11:15:40;;;;;;;2.03;1.80;;;13.30;99.90;;;;;;4969110;28;20187;-80
2023/03/20 11:18:12;;;;;;;3.53;1.90;;;13.50;99.90;;;;;;4970056;28;20272;-82
2023/03/20 11:20:44;;;;;;;1.90;1.80;;;13.70;99.90;;;;;;4963442;28;20306;-79
2023/03/20 11:23:17;;;;;;;1.93;1.83;;;14.10;99.90;;;;;;4965563;28;20208;-79
2023/03/20 11:25:51;;;;;;;2.40;2.20;;;14.70;99.90;;;;;;4964124;28;20303;-79
2023/03/20 11:28:29;;;;;;;2.50;1.80;;;15.00;99.90;;;;;;4961824;28;20203;-80
2023/03/20 11:31:03;;;;;;;2.50;2.40;;;15.20;99.90;;;;;;4959498;28;20221;-79
2023/03/20 11:33:30;;;;;;;2.20;2.10;;;15.50;99.90;;;;;;4966723;28;20262;-78
2023/03/20 11:35:59;;;;;;;1.90;1.80;;;15.80;99.90;;;;;;4965924;28;20198;-79
2023/03/20 11:38:30;;;;;;;1.90;1.80;;;16.00;99.90;;;;;;4967036;28;20195;-79
2023/03/20 11:40:57;;;;;;;1.97;1.80;;;16.30;99.90;;;;;;4962637;28;20274;-80
2023/03/20 11:43:26;;;;;;;1.90;1.80;;;16.20;99.90;;;;;;4948208;28;20559;-80
2023/03/20 11:45:56;;;;;;;1.90;1.80;;;16.10;99.90;;;;;;4949350;28;20266;-79
2023/03/20 11:48:25;;;;;;;1.80;1.70;;;16.10;99.90;;;;;;4954048;28;20214;-79
2023/03/20 11:51:03;;;;;;;1.90;1.80;;;16.20;99.90;;;;;;4965386;28;20214;-79
2023/03/20 11:53:35;;;;;;;1.70;1.63;;;16.20;99.90;;;;;;4966751;28;20566;-78
2023/03/20 11:56:07;;;;;;;2.00;1.90;;;16.30;99.90;;;;;;4961136;28;20302;-77
2023/03/20 11:58:38;;;;;;;1.70;1.60;;;16.20;99.90;;;;;;4971284;28;20220;-78
2023/03/20 12:01:09;;;;;;;1.80;1.70;;;16.20;99.90;;;;;;4959052;28;20238;-78
2023/03/20 12:03:41;;;;;;;2.00;1.90;;;16.10;99.90;;;;;;4941558;28;20210;-77
2023/03/20 12:06:14;;;;;;;1.90;1.80;;;16.00;99.90;;;;;;4943315;28;20230;-78
2023/03/20 12:08:45;;;;;;;1.70;1.60;;;15.90;99.90;;;;;;4947948;28;20199;-78
2023/03/20 12:11:26;;;;;;;1.70;1.60;;;16.10;99.90;;;;;;4960650;28;20226;-78
2023/03/20 12:13:57;;;;;;;1.53;1.50;;;16.10;99.90;;;;;;4953360;28;20222;-79
2023/03/20 12:16:26;;;;;;;1.70;1.60;;;16.10;99.90;;;;;;4956072;28;20203;-79
2023/03/20 12:18:56;;;;;;;1.63;1.57;;;16.20;99.90;;;;;;4951977;28;20267;-79
2023/03/20 12:21:30;;;;;;;1.70;1.60;;;16.20;99.90;;;;;;4955385;28;20226;-79
2023/03/20 12:24:02;;;;;;;1.50;1.50;;;16.00;99.90;;;;;;4956059;28;20620;-79
2023/03/20 12:26:33;;;;;;;1.70;1.60;;;15.90;99.90;;;;;;4954153;28;20207;-80
2023/03/20 12:29:06;;;;;;;1.70;1.60;;;15.80;99.90;;;;;;4951756;28;20206;-79
2023/03/20 12:31:39;;;;;;;1.60;1.50;;;15.60;99.90;;;;;;4949305;28;20226;-81
2023/03/20 12:34:12;;;;;;;1.80;1.67;;;15.50;99.90;;;;;;4951302;28;20226;-79
2023/03/20 12:36:43;;;;;;;1.80;1.70;;;15.30;99.90;;;;;;4950465;28;20200;-80
2023/03/20 12:39:15;;;;;;;1.80;1.70;;;15.20;99.90;;;;;;4953958;28;20677;-81
2023/03/20 12:41:59;;;;;;;1.90;1.80;;;15.20;99.90;;;;;;4950273;28;20718;-78
2023/03/20 12:44:46;;;;;;;1.90;1.80;;;15.20;99.90;;;;;;4953039;28;20210;-78
2023/03/20 12:47:31;;;;;;;3.60;1.97;;;15.20;99.90;;;;;;4947469;28;20205;-78
2023/03/20 12:50:05;;;;;;;2.27;1.97;;;15.20;99.90;;;;;;4957674;28;20206;-78
2023/03/20 12:52:45;;;;;;;1.90;1.80;;;15.50;99.90;;;;;;4951343;28;20222;-78
2023/03/20 12:55:29;;;;;;;1.97;1.87;;;15.50;99.90;;;;;;4951989;28;20226;-80
2023/03/20 12:58:07;;;;;;;1.90;1.80;;;15.60;99.90;;;;;;4945577;28;20637;-80
2023/03/20 13:00:38;;;;;;;1.97;1.87;;;15.70;99.90;;;;;;4950267;28;20195;-79
2023/03/20 13:03:17;;;;;;;1.90;1.80;;;15.80;99.90;;;;;;4951708;28;20198;-80
2023/03/20 13:05:48;;;;;;;1.90;1.80;;;15.80;99.90;;;;;;4948530;28;20223;-80
2023/03/20 13:08:32;;;;;;;2.20;2.00;;;15.90;99.90;;;;;;4949575;28;20736;-78
2023/03/20 13:11:11;;;;;;;1.90;1.80;;;15.90;99.90;;;;;;4950000;28;20215;-80
2023/03/20 13:13:46;;;;;;;1.80;1.70;;;16.00;99.90;;;;;;4950235;28;20210;-80
2023/03/20 13:16:23;;;;;;;1.90;1.80;;;16.10;99.90;;;;;;4945474;28;20657;-80
2023/03/20 13:19:02;;;;;;;2.00;1.90;;;16.10;99.90;;;;;;4952791;28;20283;-79
2023/03/20 13:21:34;;;;;;;2.20;2.00;;;16.10;99.90;;;;;;4955507;28;20728;-80
2023/03/20 13:24:22;;;;;;;2.20;1.90;;;16.20;99.90;;;;;;4959773;28;20596;-80
2023/03/20 13:26:57;;;;;;;2.37;2.27;;;16.30;99.90;;;;;;4946615;28;20255;-79
2023/03/20 13:29:33;;;;;;;2.97;2.77;;;16.30;99.90;;;;;;4946163;28;20681;-79
2023/03/20 13:32:12;;;;;;;2.60;2.50;;;16.30;99.90;;;;;;4948618;28;20265;-79
2023/03/20 13:34:56;;;;;;;3.20;3.00;;;16.00;99.90;;;;;;4951395;28;20234;-80
2023/03/20 13:37:30;;;;;;;3.40;3.20;;;16.00;99.90;;;;;;4945431;28;20547;-80
2023/03/20 13:40:05;;;;;;;2.70;2.50;;;15.80;99.90;;;;;;4958195;28;20198;-79
2023/03/20 13:42:41;;;;;;;2.70;2.17;;;15.70;99.90;;;;;;4942905;28;20791;-80
2023/03/20 13:45:26;;;;;;;2.70;2.10;;;15.70;99.90;;;;;;4945403;28;20402;-81
2023/03/20 13:47:54;;;;;;;1.90;1.80;;;15.50;99.90;;;;;;4946864;28;20871;-81
2023/03/20 13:50:42;;;;;;;2.17;1.77;;;15.40;99.90;;;;;;4952498;28;20220;-79
2023/03/20 13:53:21;;;;;;;2.47;1.80;;;15.40;99.90;;;;;;4944345;28;20216;-79
2023/03/20 13:55:55;;;;;;;1.77;1.67;;;15.60;99.90;;;;;;4946205;28;20257;-80
2023/03/20 13:58:42;;;;;;;1.80;1.70;;;15.70;99.90;;;;;;4951548;28;20197;-79
2023/03/20 14:01:18;;;;;;;4.27;3.97;;;15.90;99.90;;;;;;4955353;28;20238;-80
2023/03/20 14:03:46;;;;;;;3.70;3.50;;;16.10;99.90;;;;;;4960819;28;20209;-80
2023/03/20 14:06:39;;;;;;;4.40;4.00;;;16.10;99.90;;;;;;4956386;28;20232;-80
2023/03/20 14:09:31;;;;;;;4.27;3.97;;;16.10;99.90;;;;;;4961291;28;20206;-82
2023/03/20 14:12:05;;;;;;;3.80;3.60;;;16.00;99.90;;;;;;4962877;28;20222;-78
2023/03/20 14:14:39;;;;;;;1.90;1.80;;;15.90;99.90;;;;;;4963110;28;20210;-79
2023/03/20 14:17:16;;;;;;;2.10;1.90;;;15.80;99.90;;;;;;4958363;28;20223;-80
2023/03/20 14:19:43;;;;;;;2.53;2.20;;;15.60;99.90;;;;;;4966619;28;20206;-80
2023/03/20 14:22:16;;;;;;;2.30;2.10;;;15.60;99.90;;;;;;4965421;28;20696;-78
2023/03/20 14:24:52;;;;;;;1.97;1.87;;;15.60;99.90;;;;;;4964288;28;20773;-81
2023/03/20 14:27:21;;;;;;;2.00;1.90;;;15.70;99.90;;;;;;4957533;28;20677;-81
2023/03/20 14:29:48;;;;;;;2.10;2.00;;;15.60;99.90;;;;;;4970656;28;20296;-80
2023/03/20 14:32:35;;;;;;;2.20;1.90;;;15.60;99.90;;;;;;4959182;28;20234;-79
2023/03/20 14:35:25;;;;;;;2.77;2.27;;;15.70;99.90;;;;;;4973909;28;20625;-76
2023/03/20 14:38:14;;;;;;;4.30;4.00;;;15.80;99.90;;;;;;4971782;28;20252;-78
2023/03/20 14:40:52;;;;;;;3.93;3.60;;;15.80;99.90;;;;;;4966438;28;20209;-79
2023/03/20 14:43:31;;;;;;;3.67;3.47;;;15.70;99.90;;;;;;4957414;28;20202;-76
2023/03/20 14:46:02;;;;;;;2.93;2.73;;;15.60;99.90;;;;;;4957178;28;20213;-77
2023/03/20 14:48:34;;;;;;;1.90;1.70;;;15.60;99.90;;;;;;4956606;28;20194;-79
2023/03/20 14:51:20;;;;;;;2.27;1.90;;;15.50;99.90;;;;;;4966532;28;20602;-76
2023/03/20 14:53:53;;;;;;;5.00;1.83;;;15.50;99.90;;;;;;4962026;28;20206;-76
2023/03/20 14:56:27;;;;;;;1.90;1.80;;;15.50;99.90;;;;;;4962031;28;20198;-77
2023/03/20 14:59:02;;;;;;;2.73;1.80;;;15.50;99.90;;;;;;4967744;28;21303;-77
2023/03/20 15:01:47;;;;;;;2.03;1.70;;;15.40;99.90;;;;;;4969290;28;20319;-78
2023/03/20 15:04:28;;;;;;;2.40;2.30;;;15.40;99.90;;;;;;4954975;28;20206;-78
2023/03/20 15:06:58;;;;;;;2.60;2.40;;;15.40;99.90;;;;;;4954871;28;20278;-76
2023/03/20 15:09:27;;;;;;;2.50;2.40;;;15.30;99.90;;;;;;4956564;28;20205;-76
2023/03/20 15:12:02;;;;;;;2.60;2.50;;;15.30;99.90;;;;;;4951568;28;20763;-77
2023/03/20 15:14:33;;;;;;;2.60;2.50;;;15.30;99.90;;;;;;4952260;28;20549;-76
2023/03/20 15:17:02;;;;;;;2.57;2.47;;;15.30;99.90;;;;;;4952799;28;20729;-76
2023/03/20 15:19:30;;;;;;;2.63;2.53;;;15.30;99.90;;;;;;4957903;28;20618;-76
2023/03/20 15:21:58;;;;;;;2.80;2.60;;;15.30;99.90;;;;;;4954839;28;20228;-76
2023/03/20 15:24:27;;;;;;;2.00;1.90;;;15.30;99.90;;;;;;4951867;28;20195;-77
2023/03/20 15:26:58;;;;;;;2.20;2.10;;;15.20;99.90;;;;;;4948380;28;20219;-76
2023/03/20 15:29:26;;;;;;;2.13;2.03;;;15.20;99.90;;;;;;4952946;28;20261;-76
2023/03/20 15:31:56;;;;;;;2.17;2.07;;;15.20;99.90;;;;;;4950345;28;20269;-76
2023/03/20 15:34:26;;;;;;;2.63;2.43;;;15.10;99.90;;;;;;4955097;28;20207;-77
2023/03/20 15:36:56;;;;;;;2.00;1.90;;;15.10;99.90;;;;;;4957710;28;20200;-76
2023/03/20 15:39:25;;;;;;;2.20;2.10;;;15.00;99.90;;;;;;4952694;28;20292;-77
2023/03/20 15:41:55;;;;;;;2.50;2.40;;;14.90;99.90;;;;;;4952069;28;20242;-76
2023/03/20 15:44:24;;;;;;;3.10;2.90;;;14.80;99.90;;;;;;4947040;28;20202;-76
2023/03/20 15:46:54;;;;;;;2.73;2.53;;;14.80;99.90;;;;;;4952053;28;20304;-76
2023/03/20 15:49:22;;;;;;;2.93;2.73;;;14.80;99.90;;;;;;4954987;28;20194;-76
2023/03/20 15:51:50;;;;;;;2.60;2.50;;;14.70;99.90;;;;;;4953201;28;20222;-76
2023/03/20 15:54:18;;;;;;;2.70;2.57;;;14.60;99.90;;;;;;4951235;28;20236;-77
2023/03/20 15:56:48;;;;;;;2.90;2.80;;;14.50;99.90;;;;;;4956108;28;20209;-77
2023/03/20 15:59:19;;;;;;;2.53;2.40;;;14.50;99.90;;;;;;4948342;28;20343;-78
2023/03/20 16:01:47;;;;;;;2.53;2.03;;;14.40;99.90;;;;;;4952376;28;20719;-80
2023/03/20 16:04:16;;;;;;;4.23;3.83;;;14.30;99.90;;;;;;4952740;28;20202;-76
2023/03/20 16:06:48;;;;;;;3.43;3.23;;;14.20;99.90;;;;;;4947734;28;20709;-76
2023/03/20 16:09:16;;;;;;;4.60;4.30;;;14.10;99.90;;;;;;4945777;28;20253;-77
2023/03/20 16:11:46;;;;;;;6.07;5.60;;;14.00;99.90;;;;;;4951732;28;20224;-77
2023/03/20 16:14:18;;;;;;;5.50;5.20;;;14.00;99.90;;;;;;4946733;28;20201;-76
2023/03/20 16:16:50;;;;;;;5.50;5.13;;;13.90;99.90;;;;;;4950489;28;20736;-77
2023/03/20 16:19:17;;;;;;;4.70;4.40;;;13.90;99.90;;;;;;4945751;28;20742;-77